Time;durP1;ratioP1;P1;durP2;ratioP2;P2;SDS_P1;SDS_P2;PMS_P1;PMS_P2;Temp;Humidity;BMP_temperature;BMP_pressure;BME280_temperature;BME280_humidity;BME280_pressure;Samples;Min_cycle;Max_cycle;Signal;HPM_P1;HPM_P2
2020/12/14 00:01:20;;;;;;;127.22;34.50;;;;;;;;;;5090766;28;20175;-76
2020/12/14 00:03:46;;;;;;;112.53;34.25;;;;;;;;;;5090402;28;20206;-77
2020/12/14 00:06:12;;;;;;;93.03;34.72;;;;;;;;;;5088877;28;20633;-74
2020/12/14 00:08:41;;;;;;;92.57;37.55;;;;;;;;;;5090690;28;20215;-74
2020/12/14 00:11:07;;;;;;;70.97;31.23;;;;;;;;;;5094140;28;20279;-74
2020/12/14 00:13:37;;;;;;;131.05;35.40;;;;;;;;;;5082614;28;20179;-73
2020/12/14 00:16:07;;;;;;;79.55;29.90;;;;;;;;;;5079286;28;20186;-75
2020/12/14 00:18:33;;;;;;;114.43;32.97;;;;;;;;;;5089802;28;20231;-73
2020/12/14 00:20:59;;;;;;;82.38;29.65;;;;;;;;;;5085491;28;20180;-73
2020/12/14 00:23:25;;;;;;;81.35;29.23;;;;;;;;;;5081267;28;20549;-73
2020/12/14 00:25:51;;;;;;;71.60;28.85;;;;;;;;;;5070603;28;20580;-75
2020/12/14 00:28:17;;;;;;;75.20;29.13;;;;;;;;;;5076187;28;20179;-73
2020/12/14 00:30:43;;;;;;;61.88;27.80;;;;;;;;;;5088702;28;20176;-77
2020/12/14 00:33:09;;;;;;;65.57;26.85;;;;;;;;;;5070695;28;20180;-73
2020/12/14 00:35:35;;;;;;;64.35;29.30;;;;;;;;;;5079999;28;20183;-75
2020/12/14 00:38:01;;;;;;;62.80;27.02;;;;;;;;;;5070792;28;20179;-75
2020/12/14 00:40:29;;;;;;;54.65;27.65;;;;;;;;;;5075705;28;20823;-75
2020/12/14 00:42:56;;;;;;;67.25;29.42;;;;;;;;;;5080367;28;20195;-73
2020/12/14 00:45:22;;;;;;;62.17;26.83;;;;;;;;;;5085280;28;20660;-75
2020/12/14 00:47:48;;;;;;;56.17;26.45;;;;;;;;;;5089563;28;20187;-74
2020/12/14 00:50:14;;;;;;;53.72;28.23;;;;;;;;;;5075503;28;20200;-76
2020/12/14 00:52:41;;;;;;;57.28;26.33;;;;;;;;;;5092167;28;20182;-72
2020/12/14 00:55:07;;;;;;;54.10;26.75;;;;;;;;;;5092998;28;20182;-74
2020/12/14 00:57:33;;;;;;;50.90;25.23;;;;;;;;;;5093241;28;20294;-74
2020/12/14 00:59:59;;;;;;;53.20;26.52;;;;;;;;;;5093663;28;20203;-74
2020/12/14 01:02:25;;;;;;;52.55;26.98;;;;;;;;;;5093511;28;20589;-74
2020/12/14 01:04:52;;;;;;;55.65;28.02;;;;;;;;;;5093168;28;20171;-72
2020/12/14 01:07:18;;;;;;;51.50;25.83;;;;;;;;;;5093566;28;20234;-76
2020/12/14 01:09:44;;;;;;;43.38;24.48;;;;;;;;;;5095487;28;20191;-74
2020/12/14 01:12:10;;;;;;;46.60;24.70;;;;;;;;;;5080064;28;20207;-72
2020/12/14 01:14:36;;;;;;;46.22;25.40;;;;;;;;;;5090732;28;20600;-76
2020/12/14 01:17:02;;;;;;;50.28;25.55;;;;;;;;;;5092984;28;20179;-73
2020/12/14 01:19:28;;;;;;;50.72;25.50;;;;;;;;;;5082881;28;20215;-77
2020/12/14 01:21:55;;;;;;;52.10;27.23;;;;;;;;;;5090142;28;20171;-72
2020/12/14 01:24:23;;;;;;;54.20;26.67;;;;;;;;;;5092823;28;20198;-74
2020/12/14 01:26:49;;;;;;;47.15;27.95;;;;;;;;;;5092543;28;20185;-77
2020/12/14 01:29:15;;;;;;;51.53;27.38;;;;;;;;;;5087913;28;20240;-72
2020/12/14 01:31:42;;;;;;;47.55;28.10;;;;;;;;;;5093951;28;20171;-75
2020/12/14 01:34:08;;;;;;;60.03;27.40;;;;;;;;;;5095326;28;20179;-75
2020/12/14 01:36:34;;;;;;;49.97;26.60;;;;;;;;;;5093375;28;20176;-73
2020/12/14 01:39:00;;;;;;;47.78;26.27;;;;;;;;;;5092053;28;20692;-74
2020/12/14 01:41:26;;;;;;;57.22;28.13;;;;;;;;;;5092785;28;20271;-75
2020/12/14 01:43:53;;;;;;;51.50;26.58;;;;;;;;;;5092288;28;20207;-72
2020/12/14 01:46:28;;;;;;;45.90;25.70;;;;;;;;;;5089195;28;20622;-74
2020/12/14 01:48:54;;;;;;;43.17;23.85;;;;;;;;;;5072670;28;20569;-74
2020/12/14 01:51:21;;;;;;;43.15;24.25;;;;;;;;;;5076898;28;20224;-74
2020/12/14 01:53:47;;;;;;;46.40;25.73;;;;;;;;;;5092373;28;20183;-75
2020/12/14 01:56:13;;;;;;;47.67;25.70;;;;;;;;;;5086558;28;20182;-76
2020/12/14 01:58:39;;;;;;;51.70;27.00;;;;;;;;;;5092931;28;20202;-74
2020/12/14 02:01:05;;;;;;;45.17;24.02;;;;;;;;;;5093637;28;20224;-75
2020/12/14 02:03:31;;;;;;;46.03;24.75;;;;;;;;;;5096593;28;20206;-75
2020/12/14 02:05:57;;;;;;;46.45;25.25;;;;;;;;;;5097167;28;20202;-75
2020/12/14 02:08:23;;;;;;;44.28;24.73;;;;;;;;;;5097076;28;20385;-72
2020/12/14 02:10:49;;;;;;;41.15;24.48;;;;;;;;;;5100524;28;20200;-75
2020/12/14 02:13:15;;;;;;;43.97;24.75;;;;;;;;;;5095054;28;20176;-74
2020/12/14 02:15:41;;;;;;;52.58;26.20;;;;;;;;;;5076748;28;20286;-76
2020/12/14 02:18:07;;;;;;;46.63;26.27;;;;;;;;;;5076229;28;20180;-76
2020/12/14 02:20:33;;;;;;;47.08;25.23;;;;;;;;;;5082326;28;20551;-75
2020/12/14 02:22:59;;;;;;;42.15;25.65;;;;;;;;;;5096249;28;20533;-73
2020/12/14 02:25:25;;;;;;;44.47;25.92;;;;;;;;;;5095956;28;20179;-77
2020/12/14 02:27:51;;;;;;;47.28;25.48;;;;;;;;;;5083018;28;20208;-72
2020/12/14 02:30:18;;;;;;;43.13;24.70;;;;;;;;;;5095316;28;20195;-76
2020/12/14 02:32:44;;;;;;;43.78;24.98;;;;;;;;;;5095924;28;20544;-76
2020/12/14 02:35:10;;;;;;;48.20;25.45;;;;;;;;;;5089282;28;20539;-72
2020/12/14 02:37:36;;;;;;;42.65;26.10;;;;;;;;;;5095600;28;20544;-75
2020/12/14 02:40:02;;;;;;;43.38;25.52;;;;;;;;;;5089327;28;20204;-72
2020/12/14 02:42:28;;;;;;;43.55;25.88;;;;;;;;;;5079698;28;20184;-75
2020/12/14 02:44:54;;;;;;;43.45;24.92;;;;;;;;;;5093723;28;20262;-75
2020/12/14 02:47:20;;;;;;;45.00;26.27;;;;;;;;;;5082108;28;20533;-74
2020/12/14 02:49:47;;;;;;;43.08;25.27;;;;;;;;;;5082811;28;20222;-76
2020/12/14 02:52:14;;;;;;;44.17;26.20;;;;;;;;;;5081760;28;20176;-73
2020/12/14 02:54:41;;;;;;;44.35;25.45;;;;;;;;;;5094089;28;20262;-74
2020/12/14 02:57:07;;;;;;;39.47;23.80;;;;;;;;;;5082179;28;20181;-75
2020/12/14 02:59:33;;;;;;;46.40;26.38;;;;;;;;;;5089523;28;20290;-73
2020/12/14 03:01:59;;;;;;;38.85;23.15;;;;;;;;;;5095266;28;20187;-75
2020/12/14 03:04:25;;;;;;;46.03;26.63;;;;;;;;;;5095199;28;20674;-73
2020/12/14 03:06:52;;;;;;;42.60;26.20;;;;;;;;;;5095568;28;20178;-75
2020/12/14 03:09:19;;;;;;;44.30;26.73;;;;;;;;;;5091625;28;20215;-73
2020/12/14 03:11:46;;;;;;;42.10;25.25;;;;;;;;;;5095565;28;20256;-72
2020/12/14 03:14:13;;;;;;;46.88;24.75;;;;;;;;;;5086410;28;20569;-74
2020/12/14 03:16:43;;;;;;;42.92;24.17;;;;;;;;;;5093294;28;20524;-73
2020/12/14 03:19:09;;;;;;;42.03;23.65;;;;;;;;;;5082017;28;20559;-74
2020/12/14 03:21:35;;;;;;;41.63;23.52;;;;;;;;;;5087208;28;20176;-73
2020/12/14 03:24:01;;;;;;;41.08;23.63;;;;;;;;;;5076403;28;20207;-74
2020/12/14 03:26:28;;;;;;;41.55;24.40;;;;;;;;;;5092396;28;20181;-74
2020/12/14 03:28:54;;;;;;;42.83;26.00;;;;;;;;;;5082002;28;20196;-77
2020/12/14 03:31:20;;;;;;;38.03;23.95;;;;;;;;;;5089261;28;20545;-76
2020/12/14 03:33:46;;;;;;;36.80;23.50;;;;;;;;;;5094488;28;20176;-76
2020/12/14 03:36:12;;;;;;;40.55;24.52;;;;;;;;;;5094444;28;20181;-76
2020/12/14 03:38:38;;;;;;;39.00;23.42;;;;;;;;;;5095034;28;20529;-75
2020/12/14 03:41:05;;;;;;;39.13;23.48;;;;;;;;;;5094897;28;20284;-76
2020/12/14 03:43:31;;;;;;;37.40;22.35;;;;;;;;;;5095142;28;20556;-76
2020/12/14 03:45:57;;;;;;;34.00;21.75;;;;;;;;;;5090810;28;20184;-74
2020/12/14 03:48:24;;;;;;;35.92;21.13;;;;;;;;;;5081441;28;20193;-73
2020/12/14 03:50:50;;;;;;;37.03;21.88;;;;;;;;;;5079963;28;20169;-74
2020/12/14 03:53:16;;;;;;;31.63;21.67;;;;;;;;;;5094837;28;20176;-76
2020/12/14 03:55:42;;;;;;;33.50;21.75;;;;;;;;;;5080802;28;20180;-73
2020/12/14 03:58:08;;;;;;;32.30;20.42;;;;;;;;;;5081563;28;20206;-76
2020/12/14 04:00:35;;;;;;;35.00;21.83;;;;;;;;;;5094325;28;20179;-76
2020/12/14 04:03:04;;;;;;;34.13;23.25;;;;;;;;;;5087096;28;20196;-73
2020/12/14 04:05:30;;;;;;;33.63;20.85;;;;;;;;;;5074083;28;20194;-76
2020/12/14 04:07:56;;;;;;;34.97;21.17;;;;;;;;;;5085907;28;20229;-74
2020/12/14 04:10:23;;;;;;;35.85;21.73;;;;;;;;;;5103745;28;20202;-73
2020/12/14 04:12:49;;;;;;;32.67;21.98;;;;;;;;;;5078529;28;20229;-75
2020/12/14 04:15:15;;;;;;;33.95;20.60;;;;;;;;;;5092606;28;20203;-76
2020/12/14 04:17:41;;;;;;;33.00;22.35;;;;;;;;;;5087106;28;20175;-76
2020/12/14 04:20:07;;;;;;;31.25;20.48;;;;;;;;;;5085317;28;20215;-76
2020/12/14 04:22:33;;;;;;;29.25;18.88;;;;;;;;;;5089716;28;20636;-75
2020/12/14 04:24:59;;;;;;;29.20;20.05;;;;;;;;;;5078934;28;20176;-75
2020/12/14 04:27:26;;;;;;;38.60;20.48;;;;;;;;;;5086214;28;20172;-74
2020/12/14 04:29:52;;;;;;;27.42;16.40;;;;;;;;;;5075151;28;20191;-74
2020/12/14 04:32:18;;;;;;;32.83;21.55;;;;;;;;;;5088447;28;20761;-76
2020/12/14 04:34:44;;;;;;;34.45;22.33;;;;;;;;;;5092054;28;20183;-75
2020/12/14 04:37:10;;;;;;;24.48;18.23;;;;;;;;;;5078331;28;20230;-76
2020/12/14 04:39:36;;;;;;;26.45;18.00;;;;;;;;;;5078958;28;20196;-76
2020/12/14 04:42:02;;;;;;;24.33;17.30;;;;;;;;;;5076401;28;20171;-76
2020/12/14 04:44:30;;;;;;;24.55;16.35;;;;;;;;;;5077000;28;20266;-73
2020/12/14 04:46:56;;;;;;;23.02;16.10;;;;;;;;;;5075137;28;20206;-76
2020/12/14 04:49:22;;;;;;;24.25;17.83;;;;;;;;;;5083077;28;20195;-76
2020/12/14 04:51:48;;;;;;;21.27;14.75;;;;;;;;;;5083943;28;20261;-73
2020/12/14 04:54:16;;;;;;;21.80;16.45;;;;;;;;;;5088161;28;20182;-74
2020/12/14 04:56:42;;;;;;;24.67;16.60;;;;;;;;;;5084773;28;20236;-76
2020/12/14 04:59:09;;;;;;;20.63;15.75;;;;;;;;;;5083110;28;20274;-76
2020/12/14 05:01:36;;;;;;;15.88;13.73;;;;;;;;;;5080138;28;20176;-74
2020/12/14 05:04:02;;;;;;;20.77;14.63;;;;;;;;;;5074656;28;20199;-76
2020/12/14 05:06:28;;;;;;;19.38;14.43;;;;;;;;;;5073359;28;20226;-73
2020/12/14 05:08:54;;;;;;;19.98;14.55;;;;;;;;;;5079719;28;20234;-74
2020/12/14 05:11:46;;;;;;;19.85;14.90;;;;;;;;;;5094411;28;20266;-73
2020/12/14 05:14:17;;;;;;;22.58;14.88;;;;;;;;;;5085828;28;20290;-75
2020/12/14 05:16:43;;;;;;;18.45;14.45;;;;;;;;;;5077278;28;20186;-77
2020/12/14 05:19:27;;;;;;;22.55;14.57;;;;;;;;;;5092577;28;20210;-76
2020/12/14 05:21:54;;;;;;;17.83;14.15;;;;;;;;;;5090868;28;20182;-75
2020/12/14 05:24:21;;;;;;;21.23;13.68;;;;;;;;;;5077286;28;20647;-73
2020/12/14 05:26:48;;;;;;;17.80;13.50;;;;;;;;;;5085215;28;20175;-75
2020/12/14 05:29:16;;;;;;;20.30;13.68;;;;;;;;;;5086391;28;20203;-74
2020/12/14 05:31:42;;;;;;;17.70;12.60;;;;;;;;;;5090082;28;20263;-73
2020/12/14 05:34:12;;;;;;;20.15;14.00;;;;;;;;;;5075115;28;20184;-74
2020/12/14 05:36:38;;;;;;;19.23;13.48;;;;;;;;;;5075119;28;20190;-76
2020/12/14 05:39:04;;;;;;;20.42;14.05;;;;;;;;;;5075549;28;20199;-73
2020/12/14 05:41:30;;;;;;;20.88;14.30;;;;;;;;;;5080090;28;20532;-73
2020/12/14 05:43:57;;;;;;;19.05;13.20;;;;;;;;;;5085598;28;20211;-74
2020/12/14 05:46:23;;;;;;;19.40;13.43;;;;;;;;;;5079265;28;20171;-76
2020/12/14 05:48:49;;;;;;;16.58;12.60;;;;;;;;;;5092907;28;20195;-76
2020/12/14 05:51:15;;;;;;;19.88;13.07;;;;;;;;;;5085600;28;20180;-74
2020/12/14 05:53:43;;;;;;;19.25;13.25;;;;;;;;;;5082892;28;20525;-74
2020/12/14 05:56:10;;;;;;;16.50;12.90;;;;;;;;;;5087901;28;20592;-75
2020/12/14 05:58:36;;;;;;;15.07;12.55;;;;;;;;;;5090658;28;20222;-73
2020/12/14 06:01:04;;;;;;;17.85;13.13;;;;;;;;;;5092452;28;20183;-75
2020/12/14 06:03:30;;;;;;;18.67;13.00;;;;;;;;;;5081967;28;20192;-72
2020/12/14 06:06:06;;;;;;;15.60;12.20;;;;;;;;;;5084749;28;20511;-76
2020/12/14 06:08:35;;;;;;;18.60;13.05;;;;;;;;;;5088902;28;20229;-75
2020/12/14 06:11:04;;;;;;;18.90;13.13;;;;;;;;;;5098015;28;20185;-75
2020/12/14 06:13:31;;;;;;;16.50;12.93;;;;;;;;;;5089555;28;20544;-73
2020/12/14 06:16:00;;;;;;;16.90;12.77;;;;;;;;;;5092226;28;20192;-74
2020/12/14 06:18:33;;;;;;;16.50;12.25;;;;;;;;;;5084411;28;20250;-75
2020/12/14 06:20:59;;;;;;;14.70;12.63;;;;;;;;;;5072761;28;20192;-75
2020/12/14 06:23:26;;;;;;;17.27;12.00;;;;;;;;;;5087525;28;20204;-77
2020/12/14 06:25:53;;;;;;;17.52;13.82;;;;;;;;;;5085621;28;20567;-73
2020/12/14 06:28:32;;;;;;;18.08;11.10;;;;;;;;;;5084961;28;20179;-73
2020/12/14 06:30:59;;;;;;;17.35;12.85;;;;;;;;;;5092906;28;20178;-76
2020/12/14 06:33:41;;;;;;;15.75;11.50;;;;;;;;;;5092474;28;20258;-75
2020/12/14 06:36:16;;;;;;;15.30;11.50;;;;;;;;;;5085965;28;20191;-75
2020/12/14 06:38:42;;;;;;;17.65;11.45;;;;;;;;;;5072557;28;20735;-74
2020/12/14 06:41:16;;;;;;;14.68;11.00;;;;;;;;;;5091568;28;20183;-73
2020/12/14 06:43:43;;;;;;;13.52;10.88;;;;;;;;;;5090560;28;20735;-78
2020/12/14 06:46:10;;;;;;;13.43;10.50;;;;;;;;;;5084918;28;20184;-72
2020/12/14 06:48:37;;;;;;;15.43;11.07;;;;;;;;;;5079984;28;20196;-73
2020/12/14 06:51:04;;;;;;;15.55;12.63;;;;;;;;;;5094562;28;20176;-74
2020/12/14 06:53:39;;;;;;;14.05;10.93;;;;;;;;;;5089222;28;20179;-76
2020/12/14 06:56:05;;;;;;;14.75;10.35;;;;;;;;;;5081827;28;20179;-72
2020/12/14 06:58:36;;;;;;;12.73;9.57;;;;;;;;;;5092107;28;20213;-75
2020/12/14 07:01:02;;;;;;;13.80;11.07;;;;;;;;;;5085360;28;20572;-73
2020/12/14 07:03:35;;;;;;;22.85;18.60;;;;;;;;;;5081522;28;20295;-77
2020/12/14 07:06:02;;;;;;;15.73;11.73;;;;;;;;;;5085098;28;20188;-73
2020/12/14 07:08:37;;;;;;;16.38;12.55;;;;;;;;;;5075165;28;20240;-75
2020/12/14 07:11:14;;;;;;;14.00;11.52;;;;;;;;;;5098863;28;20254;-76
2020/12/14 07:13:40;;;;;;;14.45;12.95;;;;;;;;;;5088444;28;20537;-76
2020/12/14 07:16:10;;;;;;;17.23;12.63;;;;;;;;;;5094891;28;20215;-73
2020/12/14 07:18:37;;;;;;;13.50;10.63;;;;;;;;;;5090910;28;20244;-73
2020/12/14 07:21:09;;;;;;;17.40;10.82;;;;;;;;;;5095256;28;20229;-75
2020/12/14 07:23:36;;;;;;;12.55;9.70;;;;;;;;;;5095718;28;20656;-76
2020/12/14 07:26:03;;;;;;;13.82;9.60;;;;;;;;;;5095312;28;20175;-74
2020/12/14 07:28:42;;;;;;;15.48;11.73;;;;;;;;;;5095243;28;20668;-76
2020/12/14 07:31:09;;;;;;;15.05;10.80;;;;;;;;;;5081833;28;20178;-76
2020/12/14 07:33:36;;;;;;;11.38;10.00;;;;;;;;;;5095074;28;20220;-77
2020/12/14 07:36:09;;;;;;;11.25;9.95;;;;;;;;;;5095166;28;20324;-75
2020/12/14 07:38:44;;;;;;;13.18;10.15;;;;;;;;;;5094677;28;20200;-76
2020/12/14 07:41:10;;;;;;;18.08;9.20;;;;;;;;;;5076685;28;20187;-74
2020/12/14 07:43:50;;;;;;;12.68;10.02;;;;;;;;;;5076259;28;20675;-73
2020/12/14 07:46:36;;;;;;;10.68;9.27;;;;;;;;;;5077554;28;20172;-73
2020/12/14 07:49:12;;;;;;;11.80;9.63;;;;;;;;;;5086865;28;20262;-73
2020/12/14 07:51:43;;;;;;;13.85;10.02;;;;;;;;;;5088307;28;20181;-74
2020/12/14 07:54:10;;;;;;;11.32;9.50;;;;;;;;;;5073210;28;20188;-76
2020/12/14 07:59:23;;;;;;;10.52;9.20;;;;;;;;;;5070294;28;20220;-76
2020/12/14 08:01:49;;;;;;;9.70;8.73;;;;;;;;;;5088988;28;20297;-72
2020/12/14 08:04:28;;;;;;;11.45;8.48;;;;;;;;;;5086744;28;20211;-75
2020/12/14 08:06:56;;;;;;;11.13;9.50;;;;;;;;;;5088390;28;20174;-75
2020/12/14 08:09:48;;;;;;;11.65;9.70;;;;;;;;;;5090219;28;20202;-74
2020/12/14 08:12:14;;;;;;;10.82;8.85;;;;;;;;;;5080811;28;20215;-76
2020/12/14 08:14:40;;;;;;;11.00;8.90;;;;;;;;;;5081227;28;20629;-74
2020/12/14 08:17:13;;;;;;;9.18;8.23;;;;;;;;;;5072980;28;20870;-75
2020/12/14 08:19:39;;;;;;;8.25;7.45;;;;;;;;;;5076079;28;20256;-76
2020/12/14 08:22:09;;;;;;;11.77;9.00;;;;;;;;;;5083884;28;20180;-76
2020/12/14 08:24:36;;;;;;;9.02;7.97;;;;;;;;;;5090012;28;20228;-76
2020/12/14 08:27:03;;;;;;;10.50;9.40;;;;;;;;;;5090044;28;20232;-75
2020/12/14 08:29:30;;;;;;;13.90;9.00;;;;;;;;;;5087597;28;20241;-75
2020/12/14 08:31:58;;;;;;;12.77;9.27;;;;;;;;;;5089744;28;20175;-75
2020/12/14 08:34:32;;;;;;;10.85;8.70;;;;;;;;;;5089580;28;20514;-72
2020/12/14 08:36:58;;;;;;;13.75;9.10;;;;;;;;;;5089707;28;20762;-75
2020/12/14 08:39:24;;;;;;;9.90;8.07;;;;;;;;;;5090074;28;20206;-76
2020/12/14 08:42:07;;;;;;;9.40;7.65;;;;;;;;;;5086968;28;20179;-74
2020/12/14 08:44:33;;;;;;;9.05;7.88;;;;;;;;;;5085595;28;20291;-75
2020/12/14 08:46:59;;;;;;;12.50;7.88;;;;;;;;;;5090092;28;20179;-77
2020/12/14 08:49:26;;;;;;;9.60;8.25;;;;;;;;;;5087078;28;20214;-72
2020/12/14 08:51:52;;;;;;;9.55;8.35;;;;;;;;;;5069458;28;20718;-76
2020/12/14 08:54:19;;;;;;;9.40;8.07;;;;;;;;;;5069866;28;20219;-73
2020/12/14 08:56:45;;;;;;;8.30;7.03;;;;;;;;;;5089270;28;20196;-75
2020/12/14 08:59:16;;;;;;;12.00;8.00;;;;;;;;;;5089201;28;20202;-74
2020/12/14 09:02:07;;;;;;;9.27;7.88;;;;;;;;;;5089338;28;20278;-73
2020/12/14 09:04:37;;;;;;;8.95;7.65;;;;;;;;;;5089210;28;20616;-75
2020/12/14 09:07:07;;;;;;;9.13;8.23;;;;;;;;;;5071403;28;20172;-76
2020/12/14 09:09:34;;;;;;;9.20;7.43;;;;;;;;;;5082291;28;20194;-75
2020/12/14 09:12:01;;;;;;;8.32;7.20;;;;;;;;;;5071236;28;20183;-74
2020/12/14 09:14:29;;;;;;;8.18;6.70;;;;;;;;;;5086726;28;20214;-77
2020/12/14 09:16:56;;;;;;;8.82;7.20;;;;;;;;;;5076504;28;20260;-76
2020/12/14 09:19:27;;;;;;;9.73;8.02;;;;;;;;;;5089705;28;20199;-75
2020/12/14 09:21:53;;;;;;;10.68;7.97;;;;;;;;;;5088868;28;20179;-75
2020/12/14 09:24:30;;;;;;;10.80;7.75;;;;;;;;;;5076004;28;20269;-73
2020/12/14 09:27:10;;;;;;;8.50;7.60;;;;;;;;;;5074763;28;20181;-72
2020/12/14 09:29:36;;;;;;;7.93;6.72;;;;;;;;;;5086261;28;20195;-77
2020/12/14 09:32:04;;;;;;;9.95;6.95;;;;;;;;;;5088441;28;20190;-75
2020/12/14 09:34:30;;;;;;;8.98;7.07;;;;;;;;;;5087374;28;20655;-74
2020/12/14 09:36:57;;;;;;;7.03;6.32;;;;;;;;;;5088917;28;20202;-74
2020/12/14 09:39:24;;;;;;;6.97;6.13;;;;;;;;;;5086187;28;20207;-75
2020/12/14 09:41:50;;;;;;;7.80;7.00;;;;;;;;;;5084030;28;20171;-76
2020/12/14 09:44:17;;;;;;;7.03;6.32;;;;;;;;;;5085441;28;20207;-72
2020/12/14 09:46:43;;;;;;;8.77;6.28;;;;;;;;;;5088581;28;20583;-74
2020/12/14 09:49:09;;;;;;;13.63;10.10;;;;;;;;;;5088823;28;20199;-76
2020/12/14 09:51:35;;;;;;;9.55;6.40;;;;;;;;;;5087306;28;20175;-74
2020/12/14 09:54:02;;;;;;;8.55;6.45;;;;;;;;;;5089758;28;20198;-75
2020/12/14 09:56:29;;;;;;;6.40;5.80;;;;;;;;;;5090299;28;20179;-76
2020/12/14 09:58:55;;;;;;;7.47;5.47;;;;;;;;;;5074679;28;20206;-76
2020/12/14 10:01:21;;;;;;;6.38;5.53;;;;;;;;;;5087058;28;20194;-75
2020/12/14 10:03:47;;;;;;;7.35;6.20;;;;;;;;;;5088272;28;20203;-75
2020/12/14 10:06:14;;;;;;;6.88;6.18;;;;;;;;;;5088808;28;20182;-75
2020/12/14 10:08:40;;;;;;;6.65;5.97;;;;;;;;;;5087856;28;20219;-76
2020/12/14 10:11:07;;;;;;;6.63;5.93;;;;;;;;;;5086151;28;20257;-74
2020/12/14 10:13:34;;;;;;;7.30;6.43;;;;;;;;;;5084876;28;20190;-77
2020/12/14 10:16:00;;;;;;;7.90;6.57;;;;;;;;;;5086004;28;20187;-75
2020/12/14 10:18:26;;;;;;;7.65;6.28;;;;;;;;;;5087871;28;20282;-72
2020/12/14 10:20:52;;;;;;;11.85;6.43;;;;;;;;;;5078039;28;20241;-77
2020/12/14 10:23:18;;;;;;;8.38;7.25;;;;;;;;;;5089698;28;20209;-75
2020/12/14 10:25:45;;;;;;;8.88;7.50;;;;;;;;;;5091537;28;20175;-73
2020/12/14 10:28:11;;;;;;;8.00;6.80;;;;;;;;;;5078345;28;20214;-71
2020/12/14 10:30:37;;;;;;;7.40;6.63;;;;;;;;;;5089895;28;20180;-72
2020/12/14 10:33:04;;;;;;;8.45;7.40;;;;;;;;;;5092434;28;20528;-75
2020/12/14 10:35:30;;;;;;;8.65;6.72;;;;;;;;;;5084895;28;20576;-74
2020/12/14 10:37:56;;;;;;;10.20;8.30;;;;;;;;;;5090948;28;20175;-71
2020/12/14 10:40:26;;;;;;;8.75;7.22;;;;;;;;;;5082574;28;20299;-75
2020/12/14 10:42:52;;;;;;;9.65;7.90;;;;;;;;;;5071849;28;20225;-74
2020/12/14 10:45:18;;;;;;;9.05;7.75;;;;;;;;;;5084753;28;20552;-73
2020/12/14 10:47:44;;;;;;;10.50;7.60;;;;;;;;;;5091964;28;20214;-75
2020/12/14 10:50:11;;;;;;;9.23;7.15;;;;;;;;;;5091637;28;20203;-75
2020/12/14 10:52:37;;;;;;;8.80;7.22;;;;;;;;;;5091838;28;20215;-72
2020/12/14 10:55:04;;;;;;;8.80;6.63;;;;;;;;;;5090362;28;20191;-72
2020/12/14 10:57:30;;;;;;;10.85;7.10;;;;;;;;;;5077933;28;20183;-72
2020/12/14 11:00:03;;;;;;;8.23;6.55;;;;;;;;;;5091788;28;20199;-74
2020/12/14 11:02:29;;;;;;;7.63;6.75;;;;;;;;;;5091820;28;20506;-72
2020/12/14 11:04:55;;;;;;;10.10;7.85;;;;;;;;;;5085476;28;20560;-74
2020/12/14 11:07:21;;;;;;;8.07;6.93;;;;;;;;;;5091714;28;20187;-75
2020/12/14 11:09:47;;;;;;;8.32;6.85;;;;;;;;;;5090494;28;20207;-73
2020/12/14 11:12:13;;;;;;;8.15;6.85;;;;;;;;;;5090871;28;20179;-75
2020/12/14 11:14:39;;;;;;;7.00;6.30;;;;;;;;;;5074837;28;20233;-71
2020/12/14 11:17:05;;;;;;;7.75;6.53;;;;;;;;;;5090781;28;20182;-75
2020/12/14 11:19:31;;;;;;;8.90;6.72;;;;;;;;;;5088720;28;20203;-72
2020/12/14 11:21:57;;;;;;;8.82;6.95;;;;;;;;;;5071145;28;20180;-72
2020/12/14 11:24:23;;;;;;;9.80;7.43;;;;;;;;;;5083713;28;20210;-72
2020/12/14 11:26:50;;;;;;;10.40;7.55;;;;;;;;;;5090733;28;20172;-72
2020/12/14 11:29:16;;;;;;;10.27;6.82;;;;;;;;;;5090574;28;20215;-71
2020/12/14 11:31:42;;;;;;;8.77;6.97;;;;;;;;;;5091030;28;20649;-71
2020/12/14 11:34:08;;;;;;;8.55;7.50;;;;;;;;;;5086851;28;20186;-72
2020/12/14 11:36:34;;;;;;;9.77;7.32;;;;;;;;;;5087174;28;20264;-74
2020/12/14 11:39:01;;;;;;;8.35;7.43;;;;;;;;;;5090923;28;20210;-73
2020/12/14 11:41:27;;;;;;;11.52;7.75;;;;;;;;;;5091285;28;20544;-73
2020/12/14 11:43:53;;;;;;;7.63;6.47;;;;;;;;;;5075478;28;20207;-73
2020/12/14 11:46:20;;;;;;;9.70;7.18;;;;;;;;;;5086926;28;20183;-76
2020/12/14 11:48:46;;;;;;;9.73;6.70;;;;;;;;;;5091274;28;20195;-73
2020/12/14 11:51:12;;;;;;;13.13;8.05;;;;;;;;;;5091057;28;20648;-72
2020/12/14 11:53:38;;;;;;;8.82;7.18;;;;;;;;;;5089789;28;20183;-73
2020/12/14 11:56:04;;;;;;;7.55;6.80;;;;;;;;;;5074843;28;20253;-73
2020/12/14 11:58:30;;;;;;;11.20;7.03;;;;;;;;;;5070875;28;20204;-74
2020/12/14 12:00:56;;;;;;;12.77;7.55;;;;;;;;;;5085815;28;20179;-71
2020/12/14 12:03:22;;;;;;;8.27;7.43;;;;;;;;;;5091039;28;20202;-74
2020/12/14 12:05:48;;;;;;;8.23;7.38;;;;;;;;;;5080877;28;20288;-74
2020/12/14 12:08:15;;;;;;;8.00;7.20;;;;;;;;;;5079120;28;20198;-76
2020/12/14 12:10:41;;;;;;;9.30;7.05;;;;;;;;;;5082558;28;20333;-72
2020/12/14 12:13:07;;;;;;;12.88;8.15;;;;;;;;;;5090146;28;20179;-73
2020/12/14 12:15:34;;;;;;;13.40;7.45;;;;;;;;;;5072950;28;20793;-71
2020/12/14 12:18:00;;;;;;;7.78;6.97;;;;;;;;;;5086402;28;20207;-72
2020/12/14 12:20:26;;;;;;;8.43;7.28;;;;;;;;;;5084766;28;20210;-72
2020/12/14 12:22:57;;;;;;;9.23;7.82;;;;;;;;;;5087198;28;20179;-74
2020/12/14 12:25:24;;;;;;;11.73;7.80;;;;;;;;;;5088667;28;20303;-72
2020/12/14 12:27:50;;;;;;;9.93;7.70;;;;;;;;;;5076257;28;20180;-73
2020/12/14 12:30:16;;;;;;;9.77;7.95;;;;;;;;;;5089841;28;20206;-71
2020/12/14 12:32:42;;;;;;;10.02;7.85;;;;;;;;;;5089437;28;20201;-71
2020/12/14 12:35:08;;;;;;;13.27;8.55;;;;;;;;;;5089079;28;20183;-73
2020/12/14 12:37:34;;;;;;;12.63;7.63;;;;;;;;;;5089960;28;20275;-72
2020/12/14 12:40:03;;;;;;;14.45;8.18;;;;;;;;;;5089048;28;20210;-74
2020/12/14 12:42:29;;;;;;;8.48;7.45;;;;;;;;;;5089677;28;20183;-75
2020/12/14 12:44:55;;;;;;;12.73;8.43;;;;;;;;;;5089069;28;20238;-75
2020/12/14 12:47:21;;;;;;;12.27;8.88;;;;;;;;;;5088255;28;20176;-71
2020/12/14 12:49:47;;;;;;;8.80;7.90;;;;;;;;;;5088969;28;20187;-73
2020/12/14 12:52:13;;;;;;;10.73;8.73;;;;;;;;;;5080202;28;20179;-73
2020/12/14 12:54:40;;;;;;;13.43;8.43;;;;;;;;;;5084830;28;20176;-72
2020/12/14 12:57:06;;;;;;;9.75;7.63;;;;;;;;;;5077552;28;20824;-72
2020/12/14 12:59:32;;;;;;;11.57;7.82;;;;;;;;;;5088386;28;20671;-72
2020/12/14 13:01:59;;;;;;;11.27;8.65;;;;;;;;;;5089455;28;20194;-74
2020/12/14 13:04:25;;;;;;;8.02;7.25;;;;;;;;;;5083029;28;20207;-72
2020/12/14 13:06:51;;;;;;;12.77;7.80;;;;;;;;;;5078711;28;20180;-74
2020/12/14 13:09:17;;;;;;;8.77;7.78;;;;;;;;;;5077204;28;20199;-71
2020/12/14 13:11:45;;;;;;;8.40;7.10;;;;;;;;;;5078313;28;20676;-72
2020/12/14 13:14:12;;;;;;;8.75;6.95;;;;;;;;;;5081130;28;20192;-75
2020/12/14 13:16:38;;;;;;;7.90;7.03;;;;;;;;;;5088974;28;20179;-74
2020/12/14 13:19:07;;;;;;;8.18;6.95;;;;;;;;;;5071380;28;20211;-70
2020/12/14 13:21:34;;;;;;;8.80;7.60;;;;;;;;;;5073049;28;20180;-73
2020/12/14 13:24:00;;;;;;;8.02;7.10;;;;;;;;;;5068521;28;20204;-73
2020/12/14 13:26:26;;;;;;;9.23;7.60;;;;;;;;;;5070512;28;20183;-74
2020/12/14 13:28:53;;;;;;;11.40;8.13;;;;;;;;;;5073984;28;20191;-74
2020/12/14 13:31:19;;;;;;;9.95;7.35;;;;;;;;;;5089072;28;20713;-73
2020/12/14 13:33:48;;;;;;;10.38;8.18;;;;;;;;;;5080356;28;20553;-72
2020/12/14 13:36:15;;;;;;;10.52;7.18;;;;;;;;;;5079686;28;20252;-74
2020/12/14 13:38:41;;;;;;;9.02;7.40;;;;;;;;;;5076254;28;20411;-74
2020/12/14 13:41:07;;;;;;;7.85;6.50;;;;;;;;;;5084388;28;20192;-74
2020/12/14 13:43:34;;;;;;;13.40;6.95;;;;;;;;;;5088787;28;20199;-72
2020/12/14 13:46:00;;;;;;;7.70;6.18;;;;;;;;;;5088819;28;20179;-73
2020/12/14 13:48:26;;;;;;;8.05;6.60;;;;;;;;;;5077779;28;20212;-74
2020/12/14 13:50:52;;;;;;;8.10;7.00;;;;;;;;;;5072902;28;20180;-72
2020/12/14 13:53:19;;;;;;;7.22;6.53;;;;;;;;;;5087031;28;20636;-73
2020/12/14 13:55:45;;;;;;;13.38;9.85;;;;;;;;;;5088424;28;20186;-75
2020/12/14 13:58:11;;;;;;;8.38;6.97;;;;;;;;;;5091256;28;20179;-74
2020/12/14 14:00:37;;;;;;;9.50;6.82;;;;;;;;;;5079120;28;20913;-74
2020/12/14 14:03:03;;;;;;;9.23;6.70;;;;;;;;;;5093345;28;20505;-71
2020/12/14 14:05:29;;;;;;;8.00;7.20;;;;;;;;;;5093344;28;20178;-76
2020/12/14 14:07:55;;;;;;;7.68;6.55;;;;;;;;;;5092684;28;20278;-74
2020/12/14 14:10:22;;;;;;;8.95;6.32;;;;;;;;;;5089786;28;21910;-74
2020/12/14 14:12:48;;;;;;;7.50;6.45;;;;;;;;;;5086754;28;20183;-74
2020/12/14 14:15:14;;;;;;;7.70;7.00;;;;;;;;;;5092483;28;20183;-75
2020/12/14 14:17:40;;;;;;;9.48;8.10;;;;;;;;;;5091673;28;20680;-73
2020/12/14 14:20:07;;;;;;;7.68;6.97;;;;;;;;;;5091048;28;20211;-71
2020/12/14 14:22:33;;;;;;;8.77;7.68;;;;;;;;;;5091809;28;20208;-74
2020/12/14 14:25:00;;;;;;;8.02;7.22;;;;;;;;;;5092153;28;20210;-73
2020/12/14 14:27:26;;;;;;;10.02;7.60;;;;;;;;;;5091241;28;20262;-73
2020/12/14 14:29:53;;;;;;;8.35;6.15;;;;;;;;;;5091645;28;20198;-73